Time;durP1;ratioP1;P1;durP2;ratioP2;P2;SDS_P1;SDS_P2;PMS_P1;PMS_P2;Temp;Humidity;BMP_temperature;BMP_pressure;BME280_temperature;BME280_humidity;BME280_pressure;Samples;Min_cycle;Max_cycle;Signal;HPM_P1;HPM_P2
2023/03/20 00:00:30;;;;;;;3.03;2.77;;;;;;;10.18;74.30;99834.03;6146923;23;20297;-78
2023/03/20 00:02:56;;;;;;;2.95;2.60;;;;;;;10.20;73.79;99837.38;6149218;23;20403;-79
2023/03/20 00:05:23;;;;;;;5.10;3.10;;;;;;;10.20;73.99;99843.47;6147578;23;20155;-79
2023/03/20 00:07:49;;;;;;;4.10;3.25;;;;;;;10.22;74.06;99839.94;6148315;23;20387;-79
2023/03/20 00:10:17;;;;;;;6.87;3.20;;;;;;;10.24;73.94;99833.66;6147752;23;20156;-80
2023/03/20 00:12:43;;;;;;;4.40;3.17;;;;;;;10.24;73.87;99846.78;6146601;23;20407;-79
2023/03/20 00:15:23;;;;;;;4.18;3.45;;;;;;;10.28;74.10;99844.84;6148058;23;20159;-79
2023/03/20 00:17:50;;;;;;;5.18;3.22;;;;;;;10.29;73.87;99842.13;6148424;23;20159;-79
2023/03/20 00:20:16;;;;;;;3.88;3.50;;;;;;;10.32;74.05;99841.97;6149252;23;20186;-79
2023/03/20 00:22:42;;;;;;;7.85;3.47;;;;;;;10.35;73.88;99843.56;6148935;23;20447;-80
2023/03/20 00:25:21;;;;;;;4.57;4.03;;;;;;;10.34;73.79;99845.34;6149122;23;20175;-78
2023/03/20 00:27:47;;;;;;;4.15;3.53;;;;;;;10.32;73.84;99847.22;6122488;23;20194;-79
2023/03/20 00:30:21;;;;;;;4.95;3.95;;;;;;;10.33;73.75;99841.00;6147666;23;20240;-79
2023/03/20 00:32:48;;;;;;;3.13;2.80;;;;;;;10.36;74.03;99846.06;6149366;23;20176;-79
2023/03/20 00:35:23;;;;;;;5.60;4.40;;;;;;;10.38;74.02;99841.59;6148350;23;20155;-79
2023/03/20 00:37:50;;;;;;;3.60;3.30;;;;;;;10.39;73.83;99843.25;6150548;23;20159;-79
2023/03/20 00:40:16;;;;;;;3.65;3.10;;;;;;;10.42;74.02;99850.13;6149517;23;20214;-80
2023/03/20 00:42:46;;;;;;;5.90;4.00;;;;;;;10.44;73.93;99850.03;6148833;23;20179;-78
2023/03/20 00:45:17;;;;;;;5.82;4.03;;;;;;;10.43;73.60;99838.69;6121920;23;20160;-79
2023/03/20 00:47:46;;;;;;;4.55;4.03;;;;;;;10.40;73.67;99844.97;6148416;23;20172;-80
2023/03/20 00:50:20;;;;;;;4.63;4.20;;;;;;;10.37;73.91;99847.78;6123862;23;20610;-79
2023/03/20 00:52:47;;;;;;;3.70;2.80;;;;;;;10.33;73.84;99848.03;6121914;23;20179;-78
2023/03/20 00:55:13;;;;;;;4.05;3.65;;;;;;;10.29;73.97;99852.63;6147450;23;20160;-79
2023/03/20 00:58:01;;;;;;;4.50;3.43;;;;;;;10.28;73.96;99853.56;6149918;23;20189;-80
2023/03/20 01:00:29;;;;;;;3.78;3.38;;;;;;;10.28;74.20;99861.44;6123355;23;20949;-79
2023/03/20 01:02:56;;;;;;;3.70;3.10;;;;;;;10.28;74.15;99858.81;6122849;23;20663;-79
2023/03/20 01:05:25;;;;;;;4.38;2.58;;;;;;;10.28;74.04;99860.59;6150783;23;20159;-79
2023/03/20 01:07:52;;;;;;;5.30;3.65;;;;;;;10.28;73.98;99861.44;6153522;23;20166;-79
2023/03/20 01:10:18;;;;;;;4.30;3.00;;;;;;;10.29;74.38;99859.66;6127663;23;20155;-79
2023/03/20 01:12:46;;;;;;;3.28;3.00;;;;;;;10.29;74.10;99857.91;6152544;23;20179;-79
2023/03/20 01:15:18;;;;;;;3.15;2.63;;;;;;;10.30;74.42;99848.22;6151792;23;20156;-80
2023/03/20 01:17:44;;;;;;;4.57;2.90;;;;;;;10.34;74.16;99860.22;6122691;23;20170;-78
2023/03/20 01:20:22;;;;;;;3.57;2.83;;;;;;;10.37;74.21;99860.91;6099943;23;20187;-79
2023/03/20 01:22:48;;;;;;;2.45;2.25;;;;;;;10.39;74.15;99851.13;6148263;23;20449;-79
2023/03/20 01:25:15;;;;;;;3.30;2.43;;;;;;;10.39;73.95;99856.41;6149010;23;20155;-80
2023/03/20 01:27:44;;;;;;;2.50;2.30;;;;;;;10.39;73.89;99863.44;6148050;23;20409;-79
2023/03/20 01:30:20;;;;;;;3.00;2.08;;;;;;;10.38;73.94;99857.34;6121473;23;20186;-79
2023/03/20 01:32:47;;;;;;;2.38;1.92;;;;;;;10.38;73.88;99861.75;6120522;23;20225;-79
2023/03/20 01:35:15;;;;;;;2.10;1.63;;;;;;;10.40;73.97;99860.72;6097842;23;20167;-77
2023/03/20 01:37:43;;;;;;;2.30;2.10;;;;;;;10.40;73.90;99862.50;6118790;23;20178;-78
2023/03/20 01:40:24;;;;;;;3.33;2.13;;;;;;;10.40;73.99;99863.34;6119022;23;20215;-78
2023/03/20 01:42:50;;;;;;;2.33;2.00;;;;;;;10.43;74.09;99864.13;6118990;23;20179;-78
2023/03/20 01:45:21;;;;;;;2.13;1.92;;;;;;;10.45;73.90;99865.72;6120008;23;20167;-78
2023/03/20 01:47:48;;;;;;;2.03;1.83;;;;;;;10.48;73.73;99867.31;6118496;23;20191;-78
2023/03/20 01:50:25;;;;;;;1.63;1.50;;;;;;;10.51;73.60;99861.88;6119481;23;20156;-76
2023/03/20 01:53:03;;;;;;;2.03;1.83;;;;;;;10.54;73.39;99866.94;6120176;23;20185;-77
2023/03/20 01:55:30;;;;;;;1.80;1.70;;;;;;;10.56;73.62;99867.72;6118670;23;20167;-78
2023/03/20 01:58:03;;;;;;;1.85;1.67;;;;;;;10.58;73.67;99857.94;6119583;23;20163;-77
2023/03/20 02:00:28;;;;;;;2.00;1.80;;;;;;;10.59;73.41;99863.13;6119231;23;20720;-77
2023/03/20 02:02:55;;;;;;;2.90;1.37;;;;;;;10.60;73.38;99869.19;6118921;23;20179;-78
2023/03/20 02:05:44;;;;;;;2.53;2.13;;;;;;;10.60;73.15;99875.28;6146817;23;20179;-78
2023/03/20 02:08:40;;;;;;;2.72;2.05;;;;;;;10.61;73.17;99876.13;6118558;23;20160;-77
2023/03/20 02:11:06;;;;;;;2.90;1.75;;;;;;;10.62;72.90;99875.22;6118473;23;20159;-78
2023/03/20 02:13:33;;;;;;;1.70;1.45;;;;;;;10.61;73.23;99876.13;6144710;23;20278;-78
2023/03/20 02:16:03;;;;;;;1.83;1.30;;;;;;;10.60;72.99;99879.72;6119490;23;20170;-77
2023/03/20 02:18:46;;;;;;;1.50;1.27;;;;;;;10.60;72.90;99882.34;6118270;23;20159;-77
2023/03/20 02:21:30;;;;;;;2.40;1.65;;;;;;;10.58;72.84;99877.16;6118759;23;20194;-78
2023/03/20 02:24:14;;;;;;;2.72;1.40;;;;;;;10.54;73.09;99875.66;6118436;23;20273;-78
2023/03/20 02:27:12;;;;;;;2.20;2.00;;;;;;;10.52;73.08;99880.16;6117978;23;20158;-79
2023/03/20 02:29:52;;;;;;;1.90;1.63;;;;;;;10.52;73.06;99887.19;6119538;23;20159;-78
2023/03/20 02:32:43;;;;;;;2.08;1.50;;;;;;;10.52;72.88;99880.16;6118343;23;20183;-78
2023/03/20 02:35:25;;;;;;;2.40;2.10;;;;;;;10.52;72.73;99885.41;6144875;23;20158;-78
2023/03/20 02:38:26;;;;;;;1.95;1.80;;;;;;;10.50;72.88;99886.44;6116661;23;20173;-78
2023/03/20 02:41:22;;;;;;;4.38;2.45;;;;;;;10.49;72.88;99896.09;6085055;23;20559;-77
2023/03/20 02:44:07;;;;;;;1.70;1.60;;;;;;;10.49;72.90;99897.88;6144431;23;20187;-77
2023/03/20 02:46:38;;;;;;;2.33;1.50;;;;;;;10.48;73.05;99899.69;6119089;23;20176;-77
2023/03/20 02:49:31;;;;;;;1.92;1.73;;;;;;;10.48;73.00;99902.31;6118244;23;20166;-77
2023/03/20 02:52:15;;;;;;;2.42;1.77;;;;;;;10.45;72.66;99899.00;6118384;23;20155;-76
2023/03/20 02:54:51;;;;;;;2.40;2.20;;;;;;;10.40;72.79;99905.38;6118214;23;20151;-77
2023/03/20 02:57:25;;;;;;;2.35;2.00;;;;;;;10.39;73.07;99906.28;6118007;23;20159;-77
2023/03/20 03:00:03;;;;;;;1.92;1.83;;;;;;;10.38;72.96;99909.03;6118220;23;20632;-77
2023/03/20 03:02:57;;;;;;;3.15;2.30;;;;;;;10.36;72.97;99903.84;6118833;23;20187;-77
2023/03/20 03:05:30;;;;;;;3.00;2.28;;;;;;;10.36;72.86;99905.63;6103454;23;20159;-77
2023/03/20 03:07:59;;;;;;;3.80;3.50;;;;;;;10.37;72.81;99910.81;6140940;23;20151;-77
2023/03/20 03:10:30;;;;;;;2.75;2.50;;;;;;;10.37;72.81;99905.56;6117612;23;20210;-77
2023/03/20 03:12:59;;;;;;;3.03;2.72;;;;;;;10.39;72.81;99919.41;6145415;23;20182;-77
2023/03/20 03:15:31;;;;;;;3.70;2.90;;;;;;;10.38;72.69;99915.09;6120620;23;20190;-78
2023/03/20 03:17:59;;;;;;;5.50;3.10;;;;;;;10.35;72.77;99907.41;6144991;23;20162;-78
2023/03/20 03:20:29;;;;;;;3.92;2.45;;;;;;;10.35;72.93;99925.78;6118215;23;20187;-78
2023/03/20 03:22:55;;;;;;;3.17;2.88;;;;;;;10.34;72.83;99908.38;6118358;23;20194;-77
2023/03/20 03:25:25;;;;;;;3.87;2.80;;;;;;;10.34;72.87;99913.63;6117653;23;20169;-78
2023/03/20 03:28:37;;;;;;;2.83;2.30;;;;;;;10.32;72.99;99925.13;6118091;23;21045;-78
2023/03/20 03:31:10;;;;;;;2.75;2.38;;;;;;;10.29;73.04;99920.03;6143684;23;20160;-78
2023/03/20 03:33:40;;;;;;;3.60;3.20;;;;;;;10.29;73.00;99939.28;6118705;23;20194;-78
2023/03/20 03:36:23;;;;;;;3.03;2.72;;;;;;;10.29;72.91;99934.03;6144081;23;20279;-78
2023/03/20 03:39:01;;;;;;;4.72;3.58;;;;;;;10.27;72.81;99938.53;6117469;23;20159;-77
2023/03/20 03:41:27;;;;;;;3.20;2.92;;;;;;;10.24;72.68;99929.94;6118104;23;20197;-77
2023/03/20 03:44:04;;;;;;;4.57;3.00;;;;;;;10.17;72.82;99939.94;6116480;23;20369;-77
2023/03/20 03:46:52;;;;;;;4.13;3.53;;;;;;;10.11;73.01;99940.28;6142645;23;20166;-77
2023/03/20 03:49:24;;;;;;;3.13;2.60;;;;;;;10.07;72.92;99925.63;6116998;23;20210;-77
2023/03/20 03:51:55;;;;;;;3.85;3.30;;;;;;;10.03;72.98;99929.38;6118027;23;20159;-78
2023/03/20 03:54:49;;;;;;;4.93;3.95;;;;;;;10.00;73.15;99935.66;6118203;23;20594;-78
2023/03/20 03:58:00;;;;;;;5.05;3.92;;;;;;;9.98;73.02;99933.09;6123982;23;20178;-78
2023/03/20 04:00:27;;;;;;;3.63;3.33;;;;;;;9.94;73.06;99928.97;6143597;23;20282;-77
2023/03/20 04:02:56;;;;;;;3.50;2.63;;;;;;;9.93;72.97;99935.13;6144398;23;20198;-77
2023/03/20 04:05:25;;;;;;;4.32;3.65;;;;;;;9.91;73.23;99931.75;6144082;23;20155;-77
2023/03/20 04:07:55;;;;;;;3.88;3.10;;;;;;;9.91;73.18;99928.25;6143978;23;20205;-77
2023/03/20 04:10:20;;;;;;;5.43;3.38;;;;;;;9.92;72.97;99928.19;6141700;23;20156;-78
2023/03/20 04:12:46;;;;;;;6.67;3.83;;;;;;;9.91;73.04;99921.25;6115954;23;20186;-78
2023/03/20 04:15:13;;;;;;;5.53;4.10;;;;;;;9.92;73.27;99933.44;6141670;23;20280;-78
2023/03/20 04:17:40;;;;;;;5.35;3.83;;;;;;;9.91;72.98;99921.25;6116374;23;20187;-78
2023/03/20 04:20:08;;;;;;;4.15;3.60;;;;;;;9.88;73.28;99920.56;6115123;23;20278;-77
2023/03/20 04:22:34;;;;;;;4.03;3.45;;;;;;;9.86;73.24;99912.81;6144203;23;20650;-78
2023/03/20 04:25:15;;;;;;;4.10;3.70;;;;;;;9.88;73.40;99920.56;6118257;23;20245;-77
2023/03/20 04:27:40;;;;;;;4.90;3.92;;;;;;;9.88;73.38;99924.06;6144165;23;20156;-78
2023/03/20 04:30:12;;;;;;;5.10;3.35;;;;;;;9.86;73.45;99928.53;6116508;23;20326;-77
2023/03/20 04:33:07;;;;;;;5.50;4.20;;;;;;;9.85;73.45;99942.56;6120291;23;20519;-77
2023/03/20 04:36:02;;;;;;;4.85;3.90;;;;;;;9.87;73.15;99930.22;6079531;23;20214;-77
2023/03/20 04:38:27;;;;;;;4.63;3.57;;;;;;;9.89;73.16;99938.88;6141664;23;20159;-77
2023/03/20 04:40:53;;;;;;;3.97;3.53;;;;;;;9.86;73.21;99941.66;6114634;23;20228;-78
2023/03/20 04:43:19;;;;;;;6.30;4.40;;;;;;;9.86;73.13;99944.28;6115194;23;20183;-78
2023/03/20 04:45:44;;;;;;;6.10;4.10;;;;;;;9.89;73.11;99951.97;6115848;23;20179;-78
2023/03/20 04:48:11;;;;;;;3.75;3.05;;;;;;;9.90;73.04;99948.41;6116321;23;20214;-78
2023/03/20 04:50:37;;;;;;;3.77;3.47;;;;;;;9.91;73.13;99941.38;6116527;23;20163;-77
2023/03/20 04:53:03;;;;;;;4.18;3.72;;;;;;;9.91;72.99;99939.63;6117988;23;20262;-78
2023/03/20 04:55:29;;;;;;;5.13;3.60;;;;;;;9.91;73.03;99944.00;6119920;23;20255;-77
2023/03/20 04:57:54;;;;;;;4.03;3.67;;;;;;;9.91;73.05;99949.25;6146130;23;20379;-78
2023/03/20 05:00:20;;;;;;;4.53;4.13;;;;;;;9.89;73.20;99938.88;6119294;23;20263;-78
2023/03/20 05:02:46;;;;;;;5.47;3.97;;;;;;;9.89;73.26;99933.63;6089998;23;20196;-78
2023/03/20 05:05:13;;;;;;;5.50;3.47;;;;;;;9.89;73.21;99917.88;6109812;23;20395;-78
2023/03/20 05:07:39;;;;;;;7.77;5.87;;;;;;;9.87;73.15;99911.84;6119104;23;20443;-77
2023/03/20 05:10:08;;;;;;;4.20;3.75;;;;;;;9.86;73.10;99922.47;6118570;23;20251;-77
2023/03/20 05:12:43;;;;;;;5.57;4.70;;;;;;;9.84;73.22;99926.94;6116125;23;20186;-77
2023/03/20 05:15:23;;;;;;;5.43;4.40;;;;;;;9.85;73.30;99942.56;6142509;23;20167;-77
2023/03/20 05:18:04;;;;;;;3.90;3.50;;;;;;;9.87;73.15;99945.13;6117349;23;20250;-77
2023/03/20 05:20:39;;;;;;;5.25;3.83;;;;;;;9.90;73.10;99951.03;6116828;23;20191;-77
2023/03/20 05:23:12;;;;;;;5.30;4.35;;;;;;;9.93;73.00;99947.41;6118999;23;20819;-78
2023/03/20 05:25:46;;;;;;;5.43;4.18;;;;;;;9.94;72.98;99939.47;6146855;23;20648;-78
2023/03/20 05:28:34;;;;;;;6.38;4.22;;;;;;;9.97;72.96;99951.56;6118205;23;20186;-77
2023/03/20 05:31:32;;;;;;;4.47;4.07;;;;;;;9.97;72.99;99951.56;6114475;23;20170;-77
2023/03/20 05:34:17;;;;;;;5.70;4.22;;;;;;;9.99;72.97;99954.97;6128455;23;20417;-77
2023/03/20 05:36:58;;;;;;;5.93;4.82;;;;;;;9.98;72.85;99966.38;6118931;23;20163;-77
2023/03/20 05:39:58;;;;;;;6.10;3.88;;;;;;;9.95;73.02;99956.88;6118669;23;20266;-77
2023/03/20 05:42:50;;;;;;;4.25;3.58;;;;;;;9.92;72.90;99959.69;6117838;23;20183;-78
2023/03/20 05:45:25;;;;;;;6.40;4.55;;;;;;;9.88;73.03;99962.56;6119208;23;20206;-77
2023/03/20 05:48:25;;;;;;;6.32;4.20;;;;;;;9.85;73.22;99963.56;5997810;23;21039;-77
2023/03/20 05:51:20;;;;;;;5.13;4.45;;;;;;;9.86;72.97;99973.16;6065211;23;20172;-77
2023/03/20 05:53:52;;;;;;;7.20;5.47;;;;;;;9.85;72.96;99971.44;6118329;23;20158;-77
2023/03/20 05:56:23;;;;;;;6.10;5.15;;;;;;;9.84;73.12;99971.53;6145435;23;20775;-77
2023/03/20 05:59:01;;;;;;;5.57;5.03;;;;;;;9.80;73.07;99967.38;6118431;23;20163;-77
2023/03/20 06:01:50;;;;;;;6.90;5.85;;;;;;;9.75;73.22;99973.72;6128487;23;20724;-78
2023/03/20 06:04:36;;;;;;;6.90;5.80;;;;;;;9.74;73.36;99972.03;6117067;23;20160;-78
2023/03/20 06:07:14;;;;;;;8.95;5.43;;;;;;;9.78;73.42;99972.72;6113473;23;20159;-78
2023/03/20 06:09:43;;;;;;;5.80;5.30;;;;;;;9.80;73.26;99970.84;6110565;23;20174;-77
2023/03/20 06:12:11;;;;;;;6.53;4.90;;;;;;;9.82;73.20;99968.97;6109551;23;20963;-77
2023/03/20 06:14:37;;;;;;;7.43;6.03;;;;;;;9.82;73.22;99974.22;6112118;23;20193;-78
2023/03/20 06:17:06;;;;;;;5.40;4.50;;;;;;;9.85;73.27;99973.22;6111247;23;20160;-78
2023/03/20 06:19:31;;;;;;;6.77;4.10;;;;;;;9.86;73.20;99970.53;6110705;23;20169;-78
2023/03/20 06:21:56;;;;;;;7.33;4.40;;;;;;;9.87;73.03;99972.22;6111300;23;20195;-78
2023/03/20 06:24:23;;;;;;;6.90;4.65;;;;;;;9.88;73.03;99967.81;6109223;23;20536;-77
2023/03/20 06:26:48;;;;;;;8.17;6.23;;;;;;;9.88;73.17;99976.53;6111173;23;20163;-78
2023/03/20 06:29:14;;;;;;;7.63;5.33;;;;;;;9.92;73.10;99985.91;6111682;23;20167;-77
2023/03/20 06:31:40;;;;;;;8.43;5.30;;;;;;;9.98;73.04;99984.72;6110586;23;20647;-78
2023/03/20 06:34:09;;;;;;;6.20;4.88;;;;;;;10.04;72.96;99983.53;6109747;23;20152;-78
2023/03/20 06:36:41;;;;;;;7.22;5.60;;;;;;;10.10;72.73;99996.31;6111891;23;20160;-78
2023/03/20 06:39:14;;;;;;;5.95;4.97;;;;;;;10.14;72.66;99989.97;6111309;23;20179;-78
2023/03/20 06:41:39;;;;;;;6.77;4.37;;;;;;;10.18;72.74;99994.16;6112629;23;20203;-77
2023/03/20 06:44:07;;;;;;;5.15;4.38;;;;;;;10.19;72.70;99995.84;6110619;23;20394;-78
2023/03/20 06:46:59;;;;;;;5.63;4.03;;;;;;;10.23;72.81;100005.22;6102493;23;20594;-78
2023/03/20 06:49:24;;;;;;;5.50;4.30;;;;;;;10.28;72.57;100000.59;6111452;23;20595;-78
2023/03/20 06:51:49;;;;;;;6.50;4.23;;;;;;;10.34;72.24;100005.50;6135728;23;20534;-77
2023/03/20 06:54:22;;;;;;;5.90;5.07;;;;;;;10.43;72.24;100000.69;6108655;23;20255;-78
2023/03/20 06:56:47;;;;;;;6.60;5.90;;;;;;;10.46;71.99;100006.59;6112081;23;20187;-78
2023/03/20 06:59:13;;;;;;;5.87;4.77;;;;;;;10.48;72.00;100004.72;6111492;23;20977;-77
2023/03/20 07:01:39;;;;;;;6.10;4.67;;;;;;;10.49;71.94;100016.91;6109618;23;20637;-77
2023/03/20 07:04:06;;;;;;;7.22;5.18;;;;;;;10.52;71.99;100013.28;6110128;23;20167;-77
2023/03/20 07:06:37;;;;;;;7.32;5.40;;;;;;;10.56;72.02;100012.19;6113090;23;20159;-77
2023/03/20 07:09:04;;;;;;;3.87;3.50;;;;;;;10.62;71.74;100011.81;6111613;23;20171;-78
2023/03/20 07:11:30;;;;;;;5.15;4.50;;;;;;;10.67;71.79;100012.41;6112031;23;20607;-78
2023/03/20 07:13:55;;;;;;;5.67;4.50;;;;;;;10.68;71.65;100014.09;6112829;23;20223;-78
2023/03/20 07:16:35;;;;;;;4.70;4.30;;;;;;;10.72;71.44;100013.00;6113951;23;20159;-77
2023/03/20 07:19:01;;;;;;;5.33;4.03;;;;;;;10.75;71.51;100018.06;6138578;23;20310;-77
2023/03/20 07:21:31;;;;;;;5.60;3.90;;;;;;;10.79;71.26;100022.19;6111118;23;20191;-77
2023/03/20 07:23:57;;;;;;;8.30;3.88;;;;;;;10.85;71.13;100035.00;6112245;23;20199;-76
2023/03/20 07:26:24;;;;;;;7.45;4.40;;;;;;;10.91;71.21;100035.53;6111912;23;20557;-78
2023/03/20 07:28:50;;;;;;;6.25;4.60;;;;;;;10.89;71.04;100045.31;6111719;23;20165;-76
2023/03/20 07:31:25;;;;;;;5.30;3.50;;;;;;;10.88;71.02;100043.63;6113320;23;20147;-77
2023/03/20 07:34:13;;;;;;;7.68;5.70;;;;;;;10.87;71.22;100040.16;6111360;23;20160;-77
2023/03/20 07:36:40;;;;;;;8.05;6.57;;;;;;;10.89;71.09;100037.44;6113577;23;20194;-77
2023/03/20 07:39:07;;;;;;;7.10;5.35;;;;;;;10.92;71.06;100039.88;6111742;23;20172;-77
2023/03/20 07:41:34;;;;;;;5.82;4.38;;;;;;;10.98;70.99;100039.53;6110689;23;20190;-77
2023/03/20 07:44:03;;;;;;;6.50;5.15;;;;;;;11.04;71.06;100039.16;6111503;23;20190;-78
2023/03/20 07:46:43;;;;;;;6.88;4.40;;;;;;;11.08;70.95;100043.31;6111798;23;20162;-78
2023/03/20 07:49:08;;;;;;;6.15;4.60;;;;;;;11.12;70.84;100036.91;6113301;23;20171;-77
2023/03/20 07:51:34;;;;;;;5.00;4.00;;;;;;;11.16;70.64;100038.44;6139642;23;20155;-77
2023/03/20 07:54:01;;;;;;;5.43;4.93;;;;;;;11.19;70.67;100032.16;6112369;23;20242;-78
2023/03/20 07:56:27;;;;;;;5.63;5.10;;;;;;;11.22;70.68;100026.72;6138418;23;20689;-77
2023/03/20 07:58:52;;;;;;;6.00;5.00;;;;;;;11.28;70.51;100023.72;6136539;23;20169;-77
2023/03/20 08:01:18;;;;;;;4.47;4.07;;;;;;;11.39;70.34;100028.31;6137906;23;20666;-76
2023/03/20 08:03:43;;;;;;;5.97;4.63;;;;;;;11.48;70.03;100023.38;6135081;23;20164;-78
2023/03/20 08:06:08;;;;;;;6.97;5.17;;;;;;;11.57;69.76;100021.97;6137265;23;20541;-77
2023/03/20 08:08:34;;;;;;;6.90;5.67;;;;;;;11.61;69.80;100020.84;6138315;23;20429;-77
2023/03/20 08:11:00;;;;;;;5.30;4.57;;;;;;;11.61;69.71;100020.84;6136872;23;20156;-77
2023/03/20 08:13:25;;;;;;;7.60;5.17;;;;;;;11.54;69.62;100024.78;6137725;23;20179;-77
2023/03/20 08:15:51;;;;;;;8.70;5.07;;;;;;;11.50;69.96;100025.88;6138842;23;20531;-76
2023/03/20 08:18:16;;;;;;;6.47;4.23;;;;;;;11.55;69.99;100023.00;6138163;23;20198;-77
2023/03/20 08:20:42;;;;;;;6.37;5.70;;;;;;;11.68;69.70;100024.78;6137877;23;20190;-77
2023/03/20 08:23:07;;;;;;;5.57;5.00;;;;;;;11.90;69.32;100019.03;6135025;23;20206;-77
2023/03/20 08:25:33;;;;;;;7.23;4.83;;;;;;;12.38;68.37;100016.88;6138333;23;20152;-77
2023/03/20 08:28:00;;;;;;;4.65;4.25;;;;;;;12.80;66.91;100015.03;6141013;23;20159;-76
2023/03/20 08:30:26;;;;;;;3.45;3.15;;;;;;;13.06;65.51;100009.78;6138622;23;20154;-76
2023/03/20 08:32:51;;;;;;;8.37;4.77;;;;;;;13.12;64.90;100004.09;6114640;23;20180;-77
2023/03/20 08:35:16;;;;;;;5.07;4.37;;;;;;;13.14;64.92;100007.47;6137259;23;20242;-76
2023/03/20 08:37:42;;;;;;;7.83;6.73;;;;;;;13.16;64.80;100016.13;6139987;23;20155;-77
2023/03/20 08:40:08;;;;;;;5.30;4.80;;;;;;;13.23;64.46;100001.59;6114269;23;20187;-76
2023/03/20 08:42:33;;;;;;;4.43;3.60;;;;;;;13.50;63.77;100003.28;6138865;23;20732;-75
2023/03/20 08:44:59;;;;;;;5.30;4.43;;;;;;;13.81;62.57;100007.28;6137365;23;20391;-77
2023/03/20 08:47:25;;;;;;;4.37;3.97;;;;;;;13.97;61.99;100006.19;6139460;23;20156;-76
2023/03/20 08:49:50;;;;;;;4.90;4.03;;;;;;;13.93;61.76;100001.13;6135560;23;20460;-76
2023/03/20 08:52:15;;;;;;;4.03;3.50;;;;;;;13.92;61.96;100003.88;6138443;23;20501;-76
2023/03/20 08:54:41;;;;;;;4.03;3.03;;;;;;;13.91;61.79;100004.84;6139061;23;20169;-77
2023/03/20 08:57:06;;;;;;;3.17;2.73;;;;;;;13.87;61.39;100009.47;6141397;23;20615;-76
2023/03/20 08:59:32;;;;;;;4.20;3.80;;;;;;;13.93;61.44;100000.25;6139704;23;20163;-76
2023/03/20 09:01:57;;;;;;;5.83;3.07;;;;;;;14.07;60.79;100008.06;6138781;23;20191;-77
2023/03/20 09:04:22;;;;;;;3.53;3.23;;;;;;;14.21;60.12;100011.50;6140636;23;20154;-76
2023/03/20 09:06:49;;;;;;;3.37;2.20;;;;;;;14.25;59.51;100011.16;6140053;23;20476;-76
2023/03/20 09:09:17;;;;;;;3.22;2.85;;;;;;;14.35;59.56;100014.00;6138433;23;20238;-77
2023/03/20 09:11:42;;;;;;;3.67;3.03;;;;;;;14.43;59.15;100014.28;6139674;23;20159;-76
2023/03/20 09:14:08;;;;;;;2.67;2.10;;;;;;;14.44;58.88;100023.88;6138529;23;20155;-76
2023/03/20 09:16:33;;;;;;;3.37;3.00;;;;;;;14.45;59.08;100016.81;6140363;23;20175;-76
2023/03/20 09:18:58;;;;;;;4.03;3.17;;;;;;;14.53;58.93;100022.41;6139624;23;20179;-76
2023/03/20 09:21:24;;;;;;;3.23;2.90;;;;;;;14.51;58.89;100017.19;6138779;23;20195;-76
2023/03/20 09:23:49;;;;;;;2.57;2.37;;;;;;;14.54;58.53;100026.75;6139508;23;20199;-77
2023/03/20 09:26:15;;;;;;;2.80;2.60;;;;;;;14.65;58.45;100023.31;6138756;23;20163;-76
2023/03/20 09:28:41;;;;;;;2.57;2.23;;;;;;;14.83;57.99;100024.59;6140071;23;20167;-76
2023/03/20 09:31:06;;;;;;;3.60;2.87;;;;;;;14.94;57.72;100032.56;6137728;23;20467;-76
2023/03/20 09:33:31;;;;;;;2.90;2.60;;;;;;;15.01;57.64;100030.28;6139499;23;20178;-75
2023/03/20 09:35:57;;;;;;;3.20;2.87;;;;;;;15.05;57.39;100022.00;6140654;23;20171;-78
2023/03/20 09:38:23;;;;;;;4.03;3.00;;;;;;;15.08;57.29;100031.50;6139048;23;20246;-76
2023/03/20 09:40:51;;;;;;;5.27;3.00;;;;;;;15.13;57.20;100029.38;6139202;23;20190;-78
2023/03/20 09:43:33;;;;;;;4.07;2.55;;;;;;;15.18;56.75;100019.28;6139638;23;20418;-77
2023/03/20 09:46:01;;;;;;;3.33;3.03;;;;;;;15.05;56.85;100018.53;6139450;23;20234;-77
2023/03/20 09:48:49;;;;;;;4.35;2.70;;;;;;;14.89;57.19;100015.34;6140515;23;20159;-76
2023/03/20 09:51:41;;;;;;;3.03;2.10;;;;;;;14.85;56.92;100019.16;6112949;23;20258;-77
2023/03/20 09:54:28;;;;;;;6.30;2.50;;;;;;;14.94;55.60;100021.13;6133100;23;20187;-75
2023/03/20 09:56:56;;;;;;;2.50;2.00;;;;;;;14.91;54.92;100030.16;6139036;23;20190;-76
2023/03/20 09:59:25;;;;;;;2.90;2.42;;;;;;;14.94;55.00;100026.44;6137437;23;20645;-77
2023/03/20 10:01:54;;;;;;;3.80;2.90;;;;;;;15.00;54.84;100018.03;6138730;23;20244;-76
2023/03/20 10:04:20;;;;;;;3.40;2.70;;;;;;;14.99;54.61;100027.75;6138721;23;20415;-77
2023/03/20 10:06:46;;;;;;;2.20;2.00;;;;;;;14.99;54.56;100024.28;6138846;23;20163;-76
2023/03/20 10:09:30;;;;;;;2.60;2.03;;;;;;;15.07;54.04;100019.25;6137812;23;20159;-78
2023/03/20 10:12:25;;;;;;;2.72;2.40;;;;;;;15.15;54.15;100023.94;6138829;23;20155;-77
2023/03/20 10:15:16;;;;;;;4.60;1.73;;;;;;;15.22;53.94;100019.88;6137940;23;20234;-76
2023/03/20 10:17:53;;;;;;;3.58;2.03;;;;;;;15.38;53.00;100020.38;6113127;23;20163;-76
2023/03/20 10:20:28;;;;;;;2.90;2.35;;;;;;;15.50;52.14;100015.97;6139018;23;20191;-76
2023/03/20 10:23:17;;;;;;;2.67;2.25;;;;;;;15.49;51.85;100019.56;6138112;23;20198;-76
2023/03/20 10:25:51;;;;;;;1.35;1.25;;;;;;;15.45;50.39;100012.81;6138000;23;20553;-77
2023/03/20 10:28:28;;;;;;;3.67;1.55;;;;;;;15.23;49.46;100025.06;6138252;23;20490;-76
2023/03/20 10:31:15;;;;;;;2.42;1.60;;;;;;;15.04;49.65;100024.75;6138212;23;20645;-78
2023/03/20 10:33:59;;;;;;;1.83;1.60;;;;;;;14.99;49.58;100032.22;6139560;23;20174;-76
2023/03/20 10:36:42;;;;;;;1.60;1.40;;;;;;;15.11;49.93;100025.16;6110752;23;20977;-79
2023/03/20 10:39:41;;;;;;;2.08;1.67;;;;;;;15.39;49.47;100034.44;6122112;23;20221;-79
2023/03/20 10:42:21;;;;;;;1.55;1.10;;;;;;;15.60;49.18;100026.66;6144215;23;20246;-79
2023/03/20 10:45:13;;;;;;;1.75;1.13;;;;;;;15.69;48.09;100026.84;6143072;23;20163;-78
2023/03/20 10:47:42;;;;;;;2.33;1.30;;;;;;;15.79;48.37;100020.78;6142441;23;20167;-78
2023/03/20 10:50:16;;;;;;;2.28;1.58;;;;;;;15.82;48.17;100025.84;6141761;23;20161;-79
2023/03/20 10:52:44;;;;;;;3.35;1.30;;;;;;;15.70;48.20;100017.91;6144955;23;20699;-79
2023/03/20 10:55:21;;;;;;;1.92;1.13;;;;;;;15.57;48.40;100024.25;6143222;23;20230;-78
2023/03/20 10:57:51;;;;;;;1.30;0.95;;;;;;;15.53;48.34;100026.31;6143052;23;20486;-79
2023/03/20 11:00:22;;;;;;;1.38;1.10;;;;;;;15.54;47.91;100017.41;6141919;23;20190;-79
2023/03/20 11:02:47;;;;;;;1.30;1.00;;;;;;;15.54;47.98;100014.75;6141736;23;20160;-79
2023/03/20 11:05:24;;;;;;;4.03;1.00;;;;;;;15.54;47.99;100008.63;6115395;23;20181;-79
2023/03/20 11:08:00;;;;;;;2.78;1.20;;;;;;;15.55;48.11;100005.00;6142521;23;20168;-79
2023/03/20 11:10:26;;;;;;;1.10;0.90;;;;;;;15.57;47.89;100001.25;6142453;23;20159;-78
2023/03/20 11:12:52;;;;;;;1.52;1.20;;;;;;;15.62;47.55;100009.69;6142291;23;20183;-78
2023/03/20 11:15:25;;;;;;;1.53;1.00;;;;;;;15.73;47.68;100008.88;6140180;23;20502;-78
2023/03/20 11:17:52;;;;;;;2.15;1.52;;;;;;;15.84;47.04;100011.53;6141493;23;20180;-78
2023/03/20 11:20:17;;;;;;;2.20;1.40;;;;;;;15.94;46.07;100009.00;6141905;23;20191;-78
2023/03/20 11:22:43;;;;;;;1.10;1.00;;;;;;;16.02;46.14;100000.44;6142508;23;20456;-78
2023/03/20 11:25:41;;;;;;;0.93;0.80;;;;;;;16.06;45.93;100002.69;6143301;23;20211;-78
2023/03/20 11:28:31;;;;;;;3.70;1.65;;;;;;;16.11;45.90;100000.53;6125795;23;20667;-78
2023/03/20 11:31:00;;;;;;;2.38;1.48;;;;;;;16.10;46.03;100004.16;6143966;23;20485;-78
2023/03/20 11:33:27;;;;;;;1.40;1.30;;;;;;;16.17;45.83;99995.69;6145433;23;20171;-78
2023/03/20 11:35:55;;;;;;;1.45;1.00;;;;;;;16.24;45.67;99994.25;6142431;23;20576;-78
2023/03/20 11:38:21;;;;;;;1.15;1.00;;;;;;;16.22;46.07;99990.88;6142640;23;20192;-79
2023/03/20 11:40:48;;;;;;;3.03;1.10;;;;;;;16.26;45.98;100003.75;6141097;23;20194;-78
2023/03/20 11:43:18;;;;;;;1.63;1.13;;;;;;;16.27;46.09;99994.00;6139730;23;20299;-79
2023/03/20 11:45:55;;;;;;;3.05;1.35;;;;;;;16.26;46.01;99994.97;6139264;23;20179;-78
2023/03/20 11:48:22;;;;;;;1.20;1.10;;;;;;;16.32;45.68;99981.22;6137852;23;20169;-78
2023/03/20 11:50:50;;;;;;;2.55;1.20;;;;;;;16.33;45.26;99980.25;6139588;23;20627;-79
2023/03/20 11:53:19;;;;;;;1.40;0.93;;;;;;;16.38;44.91;99978.06;6139738;23;20240;-78
2023/03/20 11:56:00;;;;;;;1.30;1.20;;;;;;;16.37;44.73;99981.69;6139552;23;20190;-78